sensor_id;sensor_type;location;lat;lon;timestamp;P1;durP1;ratioP1;P2;durP2;ratioP2
32399;SDS011;45045;45.440;9.178;2023-06-14T00:00:18;24.40;;;21.75;;
32399;SDS011;45045;45.440;9.178;2023-06-14T00:02:44;24.02;;;21.52;;
32399;SDS011;45045;45.440;9.178;2023-06-14T00:05:10;24.65;;;22.13;;
32399;SDS011;45045;45.440;9.178;2023-06-14T00:07:39;23.25;;;20.75;;
32399;SDS011;45045;45.440;9.178;2023-06-14T00:10:07;23.08;;;20.65;;
32399;SDS011;45045;45.440;9.178;2023-06-14T00:12:34;22.52;;;20.20;;
32399;SDS011;45045;45.440;9.178;2023-06-14T00:15:00;22.85;;;20.50;;
32399;SDS011;45045;45.440;9.178;2023-06-14T00:17:28;22.80;;;20.40;;
32399;SDS011;45045;45.440;9.178;2023-06-14T00:19:57;22.45;;;20.05;;
32399;SDS011;45045;45.440;9.178;2023-06-14T00:22:24;20.90;;;17.65;;
32399;SDS011;45045;45.440;9.178;2023-06-14T00:24:50;18.02;;;16.05;;
32399;SDS011;45045;45.440;9.178;2023-06-14T00:27:16;19.13;;;16.25;;
32399;SDS011;45045;45.440;9.178;2023-06-14T00:29:42;14.95;;;13.30;;
32399;SDS011;45045;45.440;9.178;2023-06-14T00:32:08;16.15;;;14.38;;
32399;SDS011;45045;45.440;9.178;2023-06-14T00:34:34;16.83;;;13.88;;
32399;SDS011;45045;45.440;9.178;2023-06-14T00:36:59;17.70;;;13.60;;
32399;SDS011;45045;45.440;9.178;2023-06-14T00:39:25;16.02;;;13.90;;
32399;SDS011;45045;45.440;9.178;2023-06-14T00:41:51;19.35;;;14.40;;
32399;SDS011;45045;45.440;9.178;2023-06-14T00:44:17;16.98;;;14.82;;
32399;SDS011;45045;45.440;9.178;2023-06-14T00:46:43;18.75;;;13.13;;
32399;SDS011;45045;45.440;9.178;2023-06-14T00:49:10;14.98;;;13.40;;
32399;SDS011;45045;45.440;9.178;2023-06-14T00:51:39;16.67;;;13.18;;
32399;SDS011;45045;45.440;9.178;2023-06-14T00:54:04;16.67;;;13.77;;
32399;SDS011;45045;45.440;9.178;2023-06-14T00:56:30;15.60;;;12.93;;
32399;SDS011;45045;45.440;9.178;2023-06-14T00:58:56;15.80;;;13.38;;
32399;SDS011;45045;45.440;9.178;2023-06-14T01:01:23;16.83;;;12.85;;
32399;SDS011;45045;45.440;9.178;2023-06-14T01:03:49;16.65;;;14.07;;
32399;SDS011;45045;45.440;9.178;2023-06-14T01:14:44;16.02;;;12.60;;
32399;SDS011;45045;45.440;9.178;2023-06-14T01:17:13;15.07;;;11.90;;
32399;SDS011;45045;45.440;9.178;2023-06-14T01:19:44;12.02;;;10.80;;
32399;SDS011;45045;45.440;9.178;2023-06-14T01:22:11;13.77;;;10.75;;
32399;SDS011;45045;45.440;9.178;2023-06-14T01:24:36;11.77;;;10.25;;
32399;SDS011;45045;45.440;9.178;2023-06-14T01:27:04;12.02;;;9.68;;
32399;SDS011;45045;45.440;9.178;2023-06-14T01:29:30;11.80;;;9.98;;
32399;SDS011;45045;45.440;9.178;2023-06-14T01:31:58;12.15;;;10.32;;
32399;SDS011;45045;45.440;9.178;2023-06-14T01:34:27;12.73;;;10.30;;
32399;SDS011;45045;45.440;9.178;2023-06-14T01:36:53;11.88;;;10.20;;
32399;SDS011;45045;45.440;9.178;2023-06-14T01:39:22;14.32;;;9.90;;
32399;SDS011;45045;45.440;9.178;2023-06-14T01:41:48;11.73;;;9.45;;
32399;SDS011;45045;45.440;9.178;2023-06-14T01:44:16;12.50;;;10.27;;
32399;SDS011;45045;45.440;9.178;2023-06-14T01:46:43;11.77;;;9.15;;
32399;SDS011;45045;45.440;9.178;2023-06-14T01:49:10;12.05;;;9.95;;
32399;SDS011;45045;45.440;9.178;2023-06-14T01:51:36;11.43;;;8.23;;
32399;SDS011;45045;45.440;9.178;2023-06-14T01:54:02;9.38;;;7.13;;
32399;SDS011;45045;45.440;9.178;2023-06-14T01:56:28;8.57;;;6.55;;
32399;SDS011;45045;45.440;9.178;2023-06-14T01:58:54;11.27;;;6.07;;
32399;SDS011;45045;45.440;9.178;2023-06-14T02:01:21;6.32;;;4.65;;
32399;SDS011;45045;45.440;9.178;2023-06-14T02:03:47;7.60;;;4.57;;
32399;SDS011;45045;45.440;9.178;2023-06-14T02:06:14;6.78;;;4.28;;
32399;SDS011;45045;45.440;9.178;2023-06-14T02:08:41;6.53;;;3.97;;
32399;SDS011;45045;45.440;9.178;2023-06-14T02:11:07;6.38;;;4.00;;
32399;SDS011;45045;45.440;9.178;2023-06-14T02:13:33;5.68;;;3.97;;
32399;SDS011;45045;45.440;9.178;2023-06-14T02:15:59;5.32;;;4.10;;
32399;SDS011;45045;45.440;9.178;2023-06-14T02:18:25;6.47;;;3.80;;
32399;SDS011;45045;45.440;9.178;2023-06-14T02:20:51;5.85;;;4.07;;
32399;SDS011;45045;45.440;9.178;2023-06-14T02:23:17;6.55;;;3.72;;
32399;SDS011;45045;45.440;9.178;2023-06-14T02:25:42;5.05;;;3.67;;
32399;SDS011;45045;45.440;9.178;2023-06-14T02:28:10;5.63;;;3.65;;
32399;SDS011;45045;45.440;9.178;2023-06-14T02:30:35;6.10;;;3.60;;
32399;SDS011;45045;45.440;9.178;2023-06-14T02:33:01;4.68;;;3.25;;
32399;SDS011;45045;45.440;9.178;2023-06-14T02:35:28;4.78;;;3.20;;
32399;SDS011;45045;45.440;9.178;2023-06-14T02:37:54;4.90;;;2.72;;
32399;SDS011;45045;45.440;9.178;2023-06-14T02:40:20;3.45;;;2.08;;
32399;SDS011;45045;45.440;9.178;2023-06-14T02:42:46;4.18;;;2.35;;
32399;SDS011;45045;45.440;9.178;2023-06-14T02:45:11;4.15;;;2.30;;
32399;SDS011;45045;45.440;9.178;2023-06-14T02:47:37;3.85;;;2.63;;
32399;SDS011;45045;45.440;9.178;2023-06-14T02:50:03;4.55;;;2.20;;
32399;SDS011;45045;45.440;9.178;2023-06-14T02:52:29;5.13;;;2.80;;
32399;SDS011;45045;45.440;9.178;2023-06-14T02:54:54;3.83;;;2.13;;
32399;SDS011;45045;45.440;9.178;2023-06-14T02:57:21;2.80;;;2.03;;
32399;SDS011;45045;45.440;9.178;2023-06-14T02:59:47;3.70;;;2.33;;
32399;SDS011;45045;45.440;9.178;2023-06-14T03:02:12;3.85;;;2.20;;
32399;SDS011;45045;45.440;9.178;2023-06-14T03:04:39;4.93;;;2.30;;
32399;SDS011;45045;45.440;9.178;2023-06-14T03:07:05;4.05;;;2.67;;
32399;SDS011;45045;45.440;9.178;2023-06-14T03:09:37;3.63;;;2.28;;
32399;SDS011;45045;45.440;9.178;2023-06-14T03:12:03;4.35;;;2.63;;
32399;SDS011;45045;45.440;9.178;2023-06-14T03:14:30;4.40;;;2.40;;
32399;SDS011;45045;45.440;9.178;2023-06-14T03:16:56;5.32;;;2.78;;
32399;SDS011;45045;45.440;9.178;2023-06-14T03:19:22;4.25;;;2.47;;
32399;SDS011;45045;45.440;9.178;2023-06-14T03:21:48;4.13;;;2.67;;
32399;SDS011;45045;45.440;9.178;2023-06-14T03:24:14;4.70;;;2.70;;
32399;SDS011;45045;45.440;9.178;2023-06-14T03:26:43;3.95;;;2.67;;
32399;SDS011;45045;45.440;9.178;2023-06-14T03:29:09;4.13;;;2.80;;
32399;SDS011;45045;45.440;9.178;2023-06-14T03:31:35;5.20;;;2.70;;
32399;SDS011;45045;45.440;9.178;2023-06-14T03:34:01;4.82;;;2.60;;
32399;SDS011;45045;45.440;9.178;2023-06-14T03:36:27;4.88;;;3.00;;
32399;SDS011;45045;45.440;9.178;2023-06-14T03:38:53;5.93;;;2.67;;
32399;SDS011;45045;45.440;9.178;2023-06-14T03:41:20;4.25;;;2.67;;
32399;SDS011;45045;45.440;9.178;2023-06-14T03:43:45;4.00;;;2.55;;
32399;SDS011;45045;45.440;9.178;2023-06-14T03:46:11;4.25;;;2.60;;
32399;SDS011;45045;45.440;9.178;2023-06-14T03:48:37;4.78;;;2.30;;
32399;SDS011;45045;45.440;9.178;2023-06-14T03:51:03;4.32;;;2.50;;
32399;SDS011;45045;45.440;9.178;2023-06-14T03:53:30;5.82;;;2.13;;
32399;SDS011;45045;45.440;9.178;2023-06-14T03:55:55;3.83;;;2.30;;
32399;SDS011;45045;45.440;9.178;2023-06-14T03:58:22;4.75;;;2.45;;
32399;SDS011;45045;45.440;9.178;2023-06-14T04:00:48;4.55;;;2.20;;
32399;SDS011;45045;45.440;9.178;2023-06-14T04:03:13;4.68;;;2.38;;
32399;SDS011;45045;45.440;9.178;2023-06-14T04:05:40;4.57;;;2.78;;
32399;SDS011;45045;45.440;9.178;2023-06-14T04:08:09;3.88;;;2.38;;
32399;SDS011;45045;45.440;9.178;2023-06-14T04:10:35;5.53;;;2.45;;
32399;SDS011;45045;45.440;9.178;2023-06-14T04:13:00;4.78;;;2.40;;
32399;SDS011;45045;45.440;9.178;2023-06-14T04:15:26;3.80;;;2.28;;
32399;SDS011;45045;45.440;9.178;2023-06-14T04:17:54;4.05;;;2.28;;
32399;SDS011;45045;45.440;9.178;2023-06-14T04:20:22;4.15;;;2.50;;
32399;SDS011;45045;45.440;9.178;2023-06-14T04:22:49;4.45;;;2.50;;
32399;SDS011;45045;45.440;9.178;2023-06-14T04:25:15;4.70;;;2.42;;
32399;SDS011;45045;45.440;9.178;2023-06-14T04:27:41;4.57;;;2.40;;
32399;SDS011;45045;45.440;9.178;2023-06-14T04:30:08;5.03;;;2.50;;
32399;SDS011;45045;45.440;9.178;2023-06-14T04:32:34;3.97;;;2.40;;
32399;SDS011;45045;45.440;9.178;2023-06-14T04:35:05;3.95;;;2.50;;
32399;SDS011;45045;45.440;9.178;2023-06-14T04:37:33;4.57;;;2.53;;
32399;SDS011;45045;45.440;9.178;2023-06-14T04:39:59;5.60;;;2.33;;
32399;SDS011;45045;45.440;9.178;2023-06-14T04:42:25;3.63;;;2.30;;
32399;SDS011;45045;45.440;9.178;2023-06-14T04:44:56;5.13;;;2.30;;
32399;SDS011;45045;45.440;9.178;2023-06-14T04:47:22;4.63;;;2.47;;
32399;SDS011;45045;45.440;9.178;2023-06-14T04:49:50;4.30;;;2.67;;
32399;SDS011;45045;45.440;9.178;2023-06-14T04:52:18;6.05;;;2.58;;
32399;SDS011;45045;45.440;9.178;2023-06-14T04:54:45;5.57;;;2.22;;
32399;SDS011;45045;45.440;9.178;2023-06-14T04:57:11;4.20;;;2.38;;
32399;SDS011;45045;45.440;9.178;2023-06-14T04:59:39;4.28;;;2.40;;
32399;SDS011;45045;45.440;9.178;2023-06-14T05:02:05;3.60;;;2.40;;
32399;SDS011;45045;45.440;9.178;2023-06-14T05:04:32;4.35;;;2.00;;
32399;SDS011;45045;45.440;9.178;2023-06-14T05:06:57;4.03;;;2.65;;
32399;SDS011;45045;45.440;9.178;2023-06-14T05:09:23;4.50;;;2.72;;
32399;SDS011;45045;45.440;9.178;2023-06-14T05:11:49;5.68;;;2.45;;
32399;SDS011;45045;45.440;9.178;2023-06-14T05:14:15;5.57;;;2.80;;
32399;SDS011;45045;45.440;9.178;2023-06-14T05:16:41;4.85;;;3.03;;
32399;SDS011;45045;45.440;9.178;2023-06-14T05:19:07;5.97;;;3.40;;
32399;SDS011;45045;45.440;9.178;2023-06-14T05:21:33;4.13;;;2.47;;
32399;SDS011;45045;45.440;9.178;2023-06-14T05:23:59;3.97;;;2.03;;
32399;SDS011;45045;45.440;9.178;2023-06-14T05:26:25;4.45;;;2.33;;
32399;SDS011;45045;45.440;9.178;2023-06-14T05:28:57;5.10;;;2.15;;
32399;SDS011;45045;45.440;9.178;2023-06-14T05:31:25;6.20;;;2.40;;
32399;SDS011;45045;45.440;9.178;2023-06-14T05:33:52;4.63;;;2.28;;
32399;SDS011;45045;45.440;9.178;2023-06-14T05:36:17;3.65;;;2.08;;
32399;SDS011;45045;45.440;9.178;2023-06-14T05:38:44;4.70;;;2.05;;
32399;SDS011;45045;45.440;9.178;2023-06-14T05:41:10;4.05;;;2.58;;
32399;SDS011;45045;45.440;9.178;2023-06-14T05:43:36;4.47;;;2.22;;
32399;SDS011;45045;45.440;9.178;2023-06-14T05:46:01;4.13;;;2.45;;
32399;SDS011;45045;45.440;9.178;2023-06-14T05:48:28;6.72;;;2.20;;
32399;SDS011;45045;45.440;9.178;2023-06-14T05:50:55;5.88;;;2.40;;
32399;SDS011;45045;45.440;9.178;2023-06-14T05:53:20;4.63;;;2.40;;
32399;SDS011;45045;45.440;9.178;2023-06-14T05:55:46;4.18;;;2.53;;
32399;SDS011;45045;45.440;9.178;2023-06-14T05:58:11;3.88;;;2.40;;
32399;SDS011;45045;45.440;9.178;2023-06-14T06:00:39;8.70;;;3.35;;
32399;SDS011;45045;45.440;9.178;2023-06-14T06:03:05;5.82;;;3.05;;
32399;SDS011;45045;45.440;9.178;2023-06-14T06:05:33;9.57;;;3.30;;
32399;SDS011;45045;45.440;9.178;2023-06-14T06:07:59;6.82;;;3.88;;
32399;SDS011;45045;45.440;9.178;2023-06-14T06:10:25;8.00;;;3.70;;
32399;SDS011;45045;45.440;9.178;2023-06-14T06:12:51;8.15;;;4.32;;
32399;SDS011;45045;45.440;9.178;2023-06-14T06:15:17;12.30;;;4.32;;
32399;SDS011;45045;45.440;9.178;2023-06-14T06:17:43;7.50;;;3.58;;
32399;SDS011;45045;45.440;9.178;2023-06-14T06:20:09;6.35;;;3.42;;
32399;SDS011;45045;45.440;9.178;2023-06-14T06:22:36;5.07;;;3.17;;
32399;SDS011;45045;45.440;9.178;2023-06-14T06:25:03;6.97;;;3.75;;
32399;SDS011;45045;45.440;9.178;2023-06-14T06:27:29;8.18;;;3.95;;
32399;SDS011;45045;45.440;9.178;2023-06-14T06:29:54;13.85;;;4.95;;
32399;SDS011;45045;45.440;9.178;2023-06-14T06:32:21;5.97;;;4.20;;
32399;SDS011;45045;45.440;9.178;2023-06-14T06:34:46;5.65;;;4.00;;
32399;SDS011;45045;45.440;9.178;2023-06-14T06:37:13;7.78;;;4.30;;
32399;SDS011;45045;45.440;9.178;2023-06-14T06:39:38;9.13;;;4.47;;
32399;SDS011;45045;45.440;9.178;2023-06-14T06:42:04;13.70;;;5.03;;
32399;SDS011;45045;45.440;9.178;2023-06-14T06:44:31;6.80;;;3.88;;
32399;SDS011;45045;45.440;9.178;2023-06-14T06:46:57;7.18;;;3.83;;
32399;SDS011;45045;45.440;9.178;2023-06-14T06:49:23;8.05;;;4.75;;
32399;SDS011;45045;45.440;9.178;2023-06-14T06:52:04;7.57;;;4.75;;
32399;SDS011;45045;45.440;9.178;2023-06-14T06:54:31;7.72;;;4.88;;
32399;SDS011;45045;45.440;9.178;2023-06-14T06:56:57;6.65;;;4.55;;
32399;SDS011;45045;45.440;9.178;2023-06-14T06:59:23;8.23;;;5.13;;
32399;SDS011;45045;45.440;9.178;2023-06-14T07:01:48;7.07;;;4.53;;
32399;SDS011;45045;45.440;9.178;2023-06-14T07:04:14;7.47;;;4.90;;
32399;SDS011;45045;45.440;9.178;2023-06-14T07:06:41;8.07;;;4.10;;
32399;SDS011;45045;45.440;9.178;2023-06-14T07:09:07;8.63;;;4.65;;
32399;SDS011;45045;45.440;9.178;2023-06-14T07:11:37;7.00;;;4.50;;
32399;SDS011;45045;45.440;9.178;2023-06-14T07:14:06;8.10;;;4.30;;
32399;SDS011;45045;45.440;9.178;2023-06-14T07:16:32;9.38;;;4.78;;
32399;SDS011;45045;45.440;9.178;2023-06-14T07:18:57;9.43;;;4.90;;
32399;SDS011;45045;45.440;9.178;2023-06-14T07:21:23;9.18;;;5.25;;
32399;SDS011;45045;45.440;9.178;2023-06-14T07:23:50;10.73;;;4.85;;
32399;SDS011;45045;45.440;9.178;2023-06-14T07:26:17;9.90;;;5.10;;
32399;SDS011;45045;45.440;9.178;2023-06-14T07:28:43;8.23;;;4.90;;
32399;SDS011;45045;45.440;9.178;2023-06-14T07:31:10;7.65;;;4.97;;
32399;SDS011;45045;45.440;9.178;2023-06-14T07:33:35;8.38;;;5.00;;
32399;SDS011;45045;45.440;9.178;2023-06-14T07:36:01;8.23;;;4.90;;
32399;SDS011;45045;45.440;9.178;2023-06-14T07:38:27;11.13;;;5.57;;
32399;SDS011;45045;45.440;9.178;2023-06-14T07:40:53;9.27;;;5.32;;
32399;SDS011;45045;45.440;9.178;2023-06-14T07:43:19;8.40;;;5.20;;
32399;SDS011;45045;45.440;9.178;2023-06-14T07:45:45;9.48;;;5.38;;
32399;SDS011;45045;45.440;9.178;2023-06-14T07:48:11;7.95;;;5.30;;
32399;SDS011;45045;45.440;9.178;2023-06-14T07:50:36;9.38;;;5.97;;
32399;SDS011;45045;45.440;9.178;2023-06-14T07:53:02;12.35;;;6.03;;
32399;SDS011;45045;45.440;9.178;2023-06-14T07:55:27;7.72;;;5.88;;
32399;SDS011;45045;45.440;9.178;2023-06-14T07:57:53;8.40;;;5.72;;
32399;SDS011;45045;45.440;9.178;2023-06-14T08:00:19;13.10;;;5.93;;
32399;SDS011;45045;45.440;9.178;2023-06-14T08:02:46;10.95;;;5.13;;
32399;SDS011;45045;45.440;9.178;2023-06-14T08:05:11;7.68;;;5.00;;
32399;SDS011;45045;45.440;9.178;2023-06-14T08:07:38;11.18;;;5.82;;
32399;SDS011;45045;45.440;9.178;2023-06-14T08:10:04;11.25;;;5.80;;
32399;SDS011;45045;45.440;9.178;2023-06-14T08:12:31;12.43;;;5.90;;
32399;SDS011;45045;45.440;9.178;2023-06-14T08:14:57;22.70;;;6.45;;
32399;SDS011;45045;45.440;9.178;2023-06-14T08:17:24;9.95;;;6.05;;
32399;SDS011;45045;45.440;9.178;2023-06-14T08:19:50;17.10;;;8.07;;
32399;SDS011;45045;45.440;9.178;2023-06-14T08:22:16;10.10;;;7.00;;
32399;SDS011;45045;45.440;9.178;2023-06-14T08:24:43;14.90;;;7.25;;
32399;SDS011;45045;45.440;9.178;2023-06-14T08:27:09;13.70;;;6.45;;
32399;SDS011;45045;45.440;9.178;2023-06-14T08:29:35;11.25;;;6.95;;
32399;SDS011;45045;45.440;9.178;2023-06-14T08:32:00;12.85;;;7.07;;
32399;SDS011;45045;45.440;9.178;2023-06-14T08:34:26;17.95;;;7.55;;
32399;SDS011;45045;45.440;9.178;2023-06-14T08:36:52;19.67;;;8.48;;
32399;SDS011;45045;45.440;9.178;2023-06-14T08:39:18;12.60;;;7.07;;
32399;SDS011;45045;45.440;9.178;2023-06-14T08:41:47;14.15;;;7.32;;
32399;SDS011;45045;45.440;9.178;2023-06-14T08:44:16;17.92;;;8.82;;
32399;SDS011;45045;45.440;9.178;2023-06-14T08:46:42;12.27;;;7.43;;
32399;SDS011;45045;45.440;9.178;2023-06-14T08:49:08;14.93;;;7.88;;
32399;SDS011;45045;45.440;9.178;2023-06-14T08:51:37;28.88;;;8.57;;
32399;SDS011;45045;45.440;9.178;2023-06-14T08:54:03;29.95;;;9.02;;
32399;SDS011;45045;45.440;9.178;2023-06-14T08:56:30;14.65;;;7.90;;
32399;SDS011;45045;45.440;9.178;2023-06-14T08:58:59;10.77;;;7.10;;
32399;SDS011;45045;45.440;9.178;2023-06-14T09:01:30;8.80;;;6.35;;
32399;SDS011;45045;45.440;9.178;2023-06-14T09:03:59;10.52;;;6.93;;
32399;SDS011;45045;45.440;9.178;2023-06-14T09:06:25;11.05;;;7.20;;
32399;SDS011;45045;45.440;9.178;2023-06-14T09:08:53;10.13;;;7.03;;
32399;SDS011;45045;45.440;9.178;2023-06-14T09:11:22;11.85;;;7.75;;
32399;SDS011;45045;45.440;9.178;2023-06-14T09:13:48;12.15;;;8.00;;
32399;SDS011;45045;45.440;9.178;2023-06-14T09:16:15;10.02;;;7.90;;
32399;SDS011;45045;45.440;9.178;2023-06-14T09:18:45;10.65;;;8.00;;
32399;SDS011;45045;45.440;9.178;2023-06-14T09:23:42;13.13;;;7.43;;
32399;SDS011;45045;45.440;9.178;2023-06-14T09:26:15;12.88;;;7.93;;
32399;SDS011;45045;45.440;9.178;2023-06-14T09:28:43;12.75;;;7.32;;
32399;SDS011;45045;45.440;9.178;2023-06-14T09:31:15;12.15;;;8.20;;
32399;SDS011;45045;45.440;9.178;2023-06-14T09:33:42;13.13;;;8.43;;
32399;SDS011;45045;45.440;9.178;2023-06-14T09:36:15;12.52;;;8.95;;
32399;SDS011;45045;45.440;9.178;2023-06-14T09:38:43;11.93;;;8.98;;
32399;SDS011;45045;45.440;9.178;2023-06-14T09:41:20;13.93;;;9.60;;
32399;SDS011;45045;45.440;9.178;2023-06-14T09:43:55;12.98;;;8.60;;
32399;SDS011;45045;45.440;9.178;2023-06-14T09:46:25;12.75;;;8.13;;
32399;SDS011;45045;45.440;9.178;2023-06-14T09:48:52;10.70;;;7.47;;
32399;SDS011;45045;45.440;9.178;2023-06-14T09:51:18;10.27;;;6.95;;
32399;SDS011;45045;45.440;9.178;2023-06-14T09:53:46;10.82;;;7.05;;
32399;SDS011;45045;45.440;9.178;2023-06-14T09:56:14;10.85;;;7.90;;
32399;SDS011;45045;45.440;9.178;2023-06-14T09:58:46;15.85;;;6.70;;
32399;SDS011;45045;45.440;9.178;2023-06-14T10:01:13;9.77;;;6.45;;
32399;SDS011;45045;45.440;9.178;2023-06-14T10:03:39;12.18;;;8.65;;
32399;SDS011;45045;45.440;9.178;2023-06-14T10:06:05;10.15;;;7.57;;
32399;SDS011;45045;45.440;9.178;2023-06-14T10:08:33;12.70;;;7.47;;
32399;SDS011;45045;45.440;9.178;2023-06-14T10:11:02;12.23;;;7.32;;
32399;SDS011;45045;45.440;9.178;2023-06-14T10:13:28;14.15;;;6.90;;
32399;SDS011;45045;45.440;9.178;2023-06-14T10:24:20;11.93;;;9.00;;
32399;SDS011;45045;45.440;9.178;2023-06-14T10:27:15;12.38;;;8.90;;
32399;SDS011;45045;45.440;9.178;2023-06-14T10:32:22;10.85;;;7.57;;
32399;SDS011;45045;45.440;9.178;2023-06-14T10:34:56;9.73;;;7.90;;
32399;SDS011;45045;45.440;9.178;2023-06-14T10:37:26;9.70;;;6.50;;
32399;SDS011;45045;45.440;9.178;2023-06-14T10:39:52;9.65;;;7.05;;
32399;SDS011;45045;45.440;9.178;2023-06-14T10:42:18;11.05;;;7.88;;
32399;SDS011;45045;45.440;9.178;2023-06-14T10:44:51;10.27;;;7.22;;
32399;SDS011;45045;45.440;9.178;2023-06-14T10:50:06;12.45;;;8.73;;
32399;SDS011;45045;45.440;9.178;2023-06-14T10:52:34;9.48;;;7.18;;
32399;SDS011;45045;45.440;9.178;2023-06-14T10:57:51;13.05;;;9.38;;
32399;SDS011;45045;45.440;9.178;2023-06-14T11:00:24;11.82;;;9.20;;
32399;SDS011;45045;45.440;9.178;2023-06-14T11:10:42;13.57;;;10.55;;
32399;SDS011;45045;45.440;9.178;2023-06-14T11:13:10;15.25;;;9.88;;
32399;SDS011;45045;45.440;9.178;2023-06-14T11:15:37;12.82;;;9.25;;
32399;SDS011;45045;45.440;9.178;2023-06-14T11:18:08;10.32;;;9.05;;
32399;SDS011;45045;45.440;9.178;2023-06-14T11:23:01;12.50;;;11.07;;
32399;SDS011;45045;45.440;9.178;2023-06-14T11:25:27;15.38;;;9.95;;
32399;SDS011;45045;45.440;9.178;2023-06-14T11:27:53;10.77;;;8.80;;
32399;SDS011;45045;45.440;9.178;2023-06-14T11:30:20;12.20;;;8.10;;
32399;SDS011;45045;45.440;9.178;2023-06-14T11:32:47;10.35;;;9.13;;
32399;SDS011;45045;45.440;9.178;2023-06-14T11:35:15;9.93;;;8.60;;
32399;SDS011;45045;45.440;9.178;2023-06-14T11:37:42;10.77;;;9.50;;
32399;SDS011;45045;45.440;9.178;2023-06-14T11:40:09;11.73;;;9.32;;
32399;SDS011;45045;45.440;9.178;2023-06-14T11:42:37;9.68;;;8.57;;
32399;SDS011;45045;45.440;9.178;2023-06-14T11:45:04;11.10;;;7.90;;
32399;SDS011;45045;45.440;9.178;2023-06-14T11:47:32;12.45;;;8.57;;
32399;SDS011;45045;45.440;9.178;2023-06-14T11:50:02;10.95;;;8.00;;
32399;SDS011;45045;45.440;9.178;2023-06-14T11:52:30;10.85;;;8.38;;
32399;SDS011;45045;45.440;9.178;2023-06-14T11:54:56;11.63;;;8.25;;
32399;SDS011;45045;45.440;9.178;2023-06-14T11:57:22;9.50;;;7.65;;
32399;SDS011;45045;45.440;9.178;2023-06-14T11:59:48;8.90;;;6.35;;
32399;SDS011;45045;45.440;9.178;2023-06-14T12:02:19;9.82;;;7.68;;
32399;SDS011;45045;45.440;9.178;2023-06-14T12:04:46;9.27;;;6.75;;
32399;SDS011;45045;45.440;9.178;2023-06-14T12:07:16;8.07;;;5.40;;
32399;SDS011;45045;45.440;9.178;2023-06-14T12:12:22;7.28;;;5.60;;
32399;SDS011;45045;45.440;9.178;2023-06-14T12:14:53;6.28;;;4.22;;
32399;SDS011;45045;45.440;9.178;2023-06-14T12:17:20;8.52;;;5.90;;
32399;SDS011;45045;45.440;9.178;2023-06-14T12:19:46;13.10;;;7.30;;
32399;SDS011;45045;45.440;9.178;2023-06-14T12:22:13;11.27;;;6.85;;
32399;SDS011;45045;45.440;9.178;2023-06-14T12:24:39;12.60;;;7.35;;
32399;SDS011;45045;45.440;9.178;2023-06-14T12:27:07;8.75;;;6.47;;
32399;SDS011;45045;45.440;9.178;2023-06-14T12:29:33;10.70;;;7.70;;
32399;SDS011;45045;45.440;9.178;2023-06-14T12:31:59;11.15;;;7.80;;
32399;SDS011;45045;45.440;9.178;2023-06-14T12:34:25;11.13;;;7.13;;
32399;SDS011;45045;45.440;9.178;2023-06-14T12:36:52;11.90;;;9.23;;
32399;SDS011;45045;45.440;9.178;2023-06-14T12:39:18;9.07;;;7.88;;
32399;SDS011;45045;45.440;9.178;2023-06-14T12:41:44;10.45;;;8.90;;
32399;SDS011;45045;45.440;9.178;2023-06-14T12:44:13;10.43;;;7.53;;
32399;SDS011;45045;45.440;9.178;2023-06-14T12:46:39;7.05;;;4.80;;
32399;SDS011;45045;45.440;9.178;2023-06-14T12:49:08;10.27;;;5.85;;
32399;SDS011;45045;45.440;9.178;2023-06-14T12:51:37;7.97;;;4.93;;
32399;SDS011;45045;45.440;9.178;2023-06-14T12:54:05;5.65;;;4.60;;
32399;SDS011;45045;45.440;9.178;2023-06-14T12:56:31;7.38;;;4.88;;
32399;SDS011;45045;45.440;9.178;2023-06-14T12:58:57;8.68;;;6.45;;
32399;SDS011;45045;45.440;9.178;2023-06-14T13:01:23;6.88;;;5.20;;
32399;SDS011;45045;45.440;9.178;2023-06-14T13:03:49;8.73;;;4.70;;
32399;SDS011;45045;45.440;9.178;2023-06-14T13:06:16;12.68;;;6.78;;
32399;SDS011;45045;45.440;9.178;2023-06-14T13:08:42;9.93;;;7.20;;
32399;SDS011;45045;45.440;9.178;2023-06-14T13:11:09;8.55;;;6.80;;
32399;SDS011;45045;45.440;9.178;2023-06-14T13:13:35;11.50;;;5.85;;
32399;SDS011;45045;45.440;9.178;2023-06-14T13:16:00;11.18;;;8.10;;
32399;SDS011;45045;45.440;9.178;2023-06-14T13:18:26;10.55;;;7.45;;
32399;SDS011;45045;45.440;9.178;2023-06-14T13:20:52;12.02;;;7.25;;
32399;SDS011;45045;45.440;9.178;2023-06-14T13:23:17;9.57;;;6.68;;
32399;SDS011;45045;45.440;9.178;2023-06-14T13:25:43;8.75;;;7.40;;
32399;SDS011;45045;45.440;9.178;2023-06-14T13:28:09;10.20;;;7.03;;
32399;SDS011;45045;45.440;9.178;2023-06-14T13:30:35;10.63;;;8.07;;
32399;SDS011;45045;45.440;9.178;2023-06-14T13:33:00;9.77;;;8.60;;
32399;SDS011;45045;45.440;9.178;2023-06-14T13:35:26;11.15;;;7.68;;
32399;SDS011;45045;45.440;9.178;2023-06-14T13:37:52;12.63;;;8.20;;
32399;SDS011;45045;45.440;9.178;2023-06-14T13:40:18;10.35;;;8.25;;
32399;SDS011;45045;45.440;9.178;2023-06-14T13:42:44;9.00;;;6.25;;
32399;SDS011;45045;45.440;9.178;2023-06-14T13:45:11;8.48;;;6.53;;
32399;SDS011;45045;45.440;9.178;2023-06-14T13:47:38;10.07;;;7.63;;
32399;SDS011;45045;45.440;9.178;2023-06-14T13:50:04;9.07;;;7.97;;
32399;SDS011;45045;45.440;9.178;2023-06-14T13:52:30;10.45;;;6.40;;
32399;SDS011;45045;45.440;9.178;2023-06-14T13:54:56;12.50;;;7.47;;
32399;SDS011;45045;45.440;9.178;2023-06-14T13:57:22;10.32;;;7.25;;
32399;SDS011;45045;45.440;9.178;2023-06-14T13:59:48;10.75;;;7.65;;
32399;SDS011;45045;45.440;9.178;2023-06-14T14:02:13;11.00;;;7.20;;
32399;SDS011;45045;45.440;9.178;2023-06-14T14:04:39;10.13;;;7.53;;
32399;SDS011;45045;45.440;9.178;2023-06-14T14:07:05;8.35;;;7.30;;
32399;SDS011;45045;45.440;9.178;2023-06-14T14:09:32;10.02;;;6.63;;
32399;SDS011;45045;45.440;9.178;2023-06-14T14:11:59;10.23;;;7.72;;
32399;SDS011;45045;45.440;9.178;2023-06-14T14:14:25;10.57;;;7.68;;
32399;SDS011;45045;45.440;9.178;2023-06-14T14:16:52;9.23;;;7.07;;
32399;SDS011;45045;45.440;9.178;2023-06-14T14:19:22;8.88;;;7.30;;
32399;SDS011;45045;45.440;9.178;2023-06-14T14:21:48;8.82;;;7.18;;
32399;SDS011;45045;45.440;9.178;2023-06-14T14:24:14;10.20;;;7.85;;
32399;SDS011;45045;45.440;9.178;2023-06-14T14:26:41;9.50;;;7.72;;
32399;SDS011;45045;45.440;9.178;2023-06-14T14:29:07;10.95;;;8.07;;
32399;SDS011;45045;45.440;9.178;2023-06-14T14:31:33;12.65;;;7.97;;
32399;SDS011;45045;45.440;9.178;2023-06-14T14:33:59;10.50;;;8.07;;
32399;SDS011;45045;45.440;9.178;2023-06-14T14:36:25;9.70;;;7.80;;
32399;SDS011;45045;45.440;9.178;2023-06-14T14:38:51;8.82;;;7.10;;
32399;SDS011;45045;45.440;9.178;2023-06-14T14:41:17;9.30;;;7.60;;
32399;SDS011;45045;45.440;9.178;2023-06-14T14:43:42;10.40;;;7.03;;
32399;SDS011;45045;45.440;9.178;2023-06-14T14:46:08;12.07;;;7.82;;
32399;SDS011;45045;45.440;9.178;2023-06-14T14:48:34;9.93;;;6.90;;
32399;SDS011;45045;45.440;9.178;2023-06-14T14:51:00;7.97;;;6.20;;
32399;SDS011;45045;45.440;9.178;2023-06-14T14:53:25;10.02;;;6.75;;
32399;SDS011;45045;45.440;9.178;2023-06-14T14:55:51;10.85;;;7.65;;
32399;SDS011;45045;45.440;9.178;2023-06-14T14:58:17;10.45;;;8.13;;
32399;SDS011;45045;45.440;9.178;2023-06-14T15:00:46;9.75;;;7.40;;
32399;SDS011;45045;45.440;9.178;2023-06-14T15:05:39;9.15;;;7.20;;
32399;SDS011;45045;45.440;9.178;2023-06-14T15:08:05;8.73;;;6.50;;
32399;SDS011;45045;45.440;9.178;2023-06-14T15:10:37;9.05;;;6.63;;
32399;SDS011;45045;45.440;9.178;2023-06-14T15:13:09;9.32;;;6.60;;
32399;SDS011;45045;45.440;9.178;2023-06-14T15:15:36;8.07;;;6.13;;
32399;SDS011;45045;45.440;9.178;2023-06-14T15:18:02;8.40;;;6.15;;
32399;SDS011;45045;45.440;9.178;2023-06-14T15:20:28;9.20;;;6.65;;